createdAt,value
2019-04-10T00:04:07.167Z,0.00
2019-04-10T00:06:37.594Z,0.00
2019-04-10T00:09:08.473Z,-0.10
2019-04-10T00:11:37.817Z,-0.10
2019-04-10T00:14:08.156Z,-0.10
2019-04-10T00:16:38.317Z,-0.20
2019-04-10T00:19:08.661Z,-0.20
2019-04-10T00:21:38.007Z,-0.20
2019-04-10T00:24:08.037Z,-0.20
2019-04-10T00:26:37.569Z,-0.20
2019-04-10T00:29:07.774Z,-0.20
2019-04-10T00:31:38.057Z,-0.30
2019-04-10T00:34:07.983Z,-0.30
2019-04-10T00:36:37.639Z,-0.30
2019-04-10T00:39:08.539Z,-0.30
2019-04-10T00:41:38.563Z,-0.40
2019-04-10T00:44:07.913Z,-0.40
2019-04-10T00:46:37.990Z,-0.40
2019-04-10T00:49:07.323Z,-0.50
2019-04-10T00:51:36.962Z,-0.50
2019-04-10T00:54:07.761Z,-0.50
2019-04-10T00:56:37.221Z,-0.50
2019-04-10T00:59:06.509Z,-0.50
2019-04-10T01:01:36.121Z,-0.50
2019-04-10T01:04:07.304Z,-0.50
2019-04-10T01:06:36.557Z,-0.60
2019-04-10T01:09:08.993Z,-0.50
2019-04-10T01:11:57.532Z,-0.50
2019-04-10T01:14:26.833Z,-0.50
2019-04-10T01:16:57.872Z,-0.60
2019-04-10T01:19:28.091Z,-0.60
2019-04-10T01:21:58.846Z,-0.60
2019-04-10T01:24:28.323Z,-0.60
2019-04-10T01:26:57.653Z,-0.60
2019-04-10T01:29:27.281Z,-0.60
2019-04-10T01:31:56.745Z,-0.60
2019-04-10T01:34:45.508Z,-0.60
2019-04-10T01:37:16.637Z,-0.70
2019-04-10T01:39:46.465Z,-0.70
2019-04-10T01:42:16.569Z,-0.70
2019-04-10T01:44:46.765Z,-0.70
2019-04-10T01:47:17.203Z,-0.80
2019-04-10T01:50:06.385Z,-0.80
2019-04-10T01:52:55.560Z,-0.80
2019-04-10T01:55:28.096Z,-0.90
2019-04-10T01:57:56.808Z,-0.90
2019-04-10T02:00:27.778Z,-0.90
2019-04-10T02:02:57.961Z,-1.00
2019-04-10T02:05:28.223Z,-1.00
2019-04-10T02:08:03.232Z,-1.10
2019-04-10T02:10:28.560Z,-1.20
2019-04-10T02:12:59.026Z,-1.20
2019-04-10T02:15:28.848Z,-1.30
2019-04-10T02:17:59.136Z,-1.30
2019-04-10T02:20:29.158Z,-1.40
2019-04-10T02:22:59.522Z,-1.40
2019-04-10T02:25:28.832Z,-1.40
2019-04-10T02:27:58.769Z,-1.50
2019-04-10T02:30:28.063Z,-1.50
2019-04-10T02:32:57.934Z,-1.50
2019-04-10T02:35:27.512Z,-1.60
2019-04-10T02:37:58.947Z,-1.60
2019-04-10T02:40:28.898Z,-1.60
2019-04-10T02:42:59.129Z,-1.60
2019-04-10T02:45:30.159Z,-1.70
2019-04-10T02:48:01.450Z,-1.70
2019-04-10T02:50:31.404Z,-1.70
2019-04-10T02:53:02.883Z,-1.80
2019-04-10T02:55:33.355Z,-1.80
2019-04-10T02:58:03.123Z,-1.80
2019-04-10T03:00:33.847Z,-1.80
2019-04-10T03:03:03.548Z,-1.90
2019-04-10T03:05:34.493Z,-1.90
2019-04-10T03:08:05.010Z,-1.90
2019-04-10T03:10:43.324Z,-1.90
2019-04-10T03:13:06.291Z,-2.00
2019-04-10T03:15:36.017Z,-2.00
2019-04-10T03:18:06.481Z,-2.00
2019-04-10T03:20:36.035Z,-2.00
2019-04-10T03:23:05.605Z,-2.00
2019-04-10T03:25:35.285Z,-2.00
2019-04-10T03:28:05.407Z,-2.10
2019-04-10T03:30:36.514Z,-2.10
2019-04-10T03:33:29.627Z,-2.10
2019-04-10T03:35:56.955Z,-2.10
2019-04-10T03:38:26.862Z,-2.20
2019-04-10T03:40:56.136Z,-2.20
2019-04-10T03:43:25.910Z,-2.20
2019-04-10T03:45:55.599Z,-2.30
2019-04-10T03:48:25.192Z,-2.30
2019-04-10T03:50:56.283Z,-2.30
2019-04-10T03:53:26.440Z,-2.40
2019-04-10T03:55:56.971Z,-2.40
2019-04-10T03:58:27.293Z,-2.50
2019-04-10T04:00:56.782Z,-2.50
2019-04-10T04:03:26.775Z,-2.50
2019-04-10T04:05:57.174Z,-2.60
2019-04-10T04:08:27.724Z,-2.60
2019-04-10T04:10:57.283Z,-2.60
2019-04-10T04:13:27.835Z,-2.60
2019-04-10T04:15:58.110Z,-2.60
2019-04-10T04:18:27.623Z,-2.60
2019-04-10T04:20:56.977Z,-2.60
2019-04-10T04:23:26.342Z,-2.70
2019-04-10T04:25:56.785Z,-2.70
2019-04-10T04:28:26.227Z,-2.70
2019-04-10T04:30:56.702Z,-2.70
2019-04-10T04:33:26.189Z,-2.70
2019-04-10T04:35:55.484Z,-2.70
2019-04-10T04:38:25.631Z,-2.70
2019-04-10T04:40:55.191Z,-2.80
2019-04-10T04:43:25.130Z,-2.80
2019-04-10T04:45:55.426Z,-2.70
2019-04-10T04:48:26.257Z,-2.80
2019-04-10T04:50:56.632Z,-2.80
2019-04-10T04:53:26.105Z,-2.80
2019-04-10T04:55:55.509Z,-2.80
2019-04-10T04:58:26.342Z,-2.80
2019-04-10T05:00:56.442Z,-2.80
2019-04-10T05:03:27.012Z,-2.80
2019-04-10T05:05:56.427Z,-2.80
2019-04-10T05:08:26.022Z,-2.70
2019-04-10T05:10:56.069Z,-2.70
2019-04-10T05:13:26.310Z,-2.70
2019-04-10T05:15:55.802Z,-2.70
2019-04-10T05:18:25.387Z,-2.60
2019-04-10T05:20:54.836Z,-2.60
2019-04-10T05:23:24.508Z,-2.50
2019-04-10T05:25:53.989Z,-2.50
2019-04-10T05:28:24.314Z,-2.50
2019-04-10T05:30:54.686Z,-2.40
2019-04-10T05:33:24.727Z,-2.40
2019-04-10T05:35:54.996Z,-2.30
2019-04-10T05:38:24.979Z,-2.30
2019-04-10T05:40:55.159Z,-2.20
2019-04-10T05:43:24.626Z,-2.20
2019-04-10T05:45:55.050Z,-2.10
2019-04-10T05:48:25.449Z,-2.00
2019-04-10T05:51:02.268Z,-2.00
2019-04-10T05:53:26.847Z,-1.90
2019-04-10T05:55:56.178Z,-1.80
2019-04-10T05:58:25.826Z,-1.80
2019-04-10T06:00:56.860Z,-1.70
2019-04-10T06:03:26.190Z,-1.60
2019-04-10T06:05:56.685Z,-1.50
2019-04-10T06:08:27.078Z,-1.40
2019-04-10T06:10:56.378Z,-1.30
2019-04-10T06:13:26.140Z,-1.20
2019-04-10T06:15:55.782Z,-1.10
2019-04-10T06:18:25.095Z,-1.00
2019-04-10T06:20:54.665Z,-0.80
2019-04-10T06:23:24.140Z,-0.70
2019-04-10T06:25:54.134Z,-0.50
2019-04-10T06:28:25.717Z,-0.40
2019-04-10T06:30:54.621Z,-0.20
2019-04-10T06:33:24.191Z,-0.10
2019-04-10T06:35:55.144Z,0.00
2019-04-10T06:38:26.470Z,0.10
2019-04-10T06:40:55.973Z,0.20
2019-04-10T06:43:25.290Z,0.30
2019-04-10T06:45:55.805Z,0.40
2019-04-10T06:48:25.902Z,0.60
2019-04-10T06:50:55.634Z,0.80
2019-04-10T06:53:25.128Z,1.00
2019-04-10T06:55:54.514Z,1.20
2019-04-10T06:58:24.271Z,1.40
2019-04-10T07:00:55.265Z,1.50
2019-04-10T07:03:28.937Z,1.80
2019-04-10T07:06:06.283Z,1.90
2019-04-10T07:08:27.596Z,2.10
2019-04-10T07:11:05.207Z,2.20
2019-04-10T07:13:30.130Z,2.40
2019-04-10T07:16:00.134Z,2.60
2019-04-10T07:18:30.454Z,2.80
2019-04-10T07:21:01.606Z,3.10
2019-04-10T07:23:32.373Z,3.30
2019-04-10T07:26:02.087Z,3.40
2019-04-10T07:28:33.538Z,3.50
2019-04-10T07:31:08.126Z,3.70
2019-04-10T07:33:34.945Z,4.00
2019-04-10T07:36:09.001Z,4.20
2019-04-10T07:38:36.923Z,4.40
2019-04-10T07:41:13.970Z,4.50
2019-04-10T07:43:38.725Z,4.70
2019-04-10T07:46:08.134Z,4.90
2019-04-10T07:48:39.389Z,5.10
2019-04-10T07:51:11.211Z,5.40
2019-04-10T07:53:41.477Z,5.50
2019-04-10T07:56:16.193Z,5.70
2019-04-10T07:58:43.925Z,5.80
2019-04-10T08:01:14.084Z,5.90
2019-04-10T08:03:44.066Z,6.10
2019-04-10T08:06:13.987Z,6.20
2019-04-10T08:08:43.273Z,6.30
2019-04-10T08:11:13.305Z,6.30
2019-04-10T08:13:42.928Z,6.30
2019-04-10T08:16:12.773Z,6.40
2019-04-10T08:18:42.278Z,6.50
2019-04-10T08:21:12.021Z,6.50
2019-04-10T08:23:42.379Z,6.70
2019-04-10T08:26:12.204Z,6.90
2019-04-10T08:28:41.488Z,7.10
2019-04-10T08:31:10.782Z,7.40
2019-04-10T08:33:40.170Z,7.40
2019-04-10T08:36:10.893Z,7.50
2019-04-10T08:38:40.646Z,7.50
2019-04-10T08:41:10.757Z,7.60
2019-04-10T08:43:41.618Z,7.70
2019-04-10T08:46:11.059Z,7.90
2019-04-10T08:48:41.473Z,8.20
2019-04-10T08:51:11.114Z,8.30
2019-04-10T08:53:40.463Z,8.50
2019-04-10T08:56:10.743Z,8.80
2019-04-10T08:58:41.260Z,9.00
2019-04-10T09:01:11.306Z,9.20
2019-04-10T09:03:41.283Z,9.40
2019-04-10T09:06:11.313Z,9.50
2019-04-10T09:08:43.625Z,9.70
2019-04-10T09:11:14.611Z,9.90
2019-04-10T09:13:44.466Z,10.20
2019-04-10T09:16:14.218Z,10.40
2019-04-10T09:18:43.546Z,10.50
2019-04-10T09:21:13.347Z,10.60
2019-04-10T09:23:50.470Z,10.40
2019-04-10T09:26:13.999Z,10.20
2019-04-10T09:28:43.430Z,9.90
2019-04-10T09:31:13.962Z,9.60
2019-04-10T09:33:43.882Z,9.40
2019-04-10T09:36:15.127Z,9.20
2019-04-10T09:38:45.458Z,9.10
2019-04-10T09:41:15.202Z,8.90
2019-04-10T09:43:45.515Z,8.70
2019-04-10T09:46:16.245Z,8.60
2019-04-10T09:48:45.570Z,8.60
2019-04-10T09:51:17.698Z,8.50
2019-04-10T09:53:46.779Z,8.50
2019-04-10T09:56:17.730Z,8.60
2019-04-10T09:58:47.434Z,8.70
2019-04-10T10:01:17.925Z,8.90
2019-04-10T10:03:47.310Z,9.00
2019-04-10T10:06:24.285Z,9.00
2019-04-10T10:08:48.198Z,9.00
2019-04-10T10:11:18.091Z,9.10
2019-04-10T10:13:48.343Z,9.10
2019-04-10T10:16:18.844Z,9.20
2019-04-10T10:18:49.788Z,9.20
2019-04-10T10:21:21.614Z,9.20
2019-04-10T10:23:51.925Z,9.10
2019-04-10T10:26:21.389Z,9.10
2019-04-10T10:28:52.482Z,9.20
2019-04-10T10:31:22.158Z,9.20
2019-04-10T10:33:52.197Z,9.20
2019-04-10T10:36:22.210Z,9.20
2019-04-10T10:39:04.395Z,9.20
2019-04-10T10:41:24.363Z,9.30
2019-04-10T10:43:54.171Z,9.30
2019-04-10T10:46:25.123Z,9.30
2019-04-10T10:48:55.813Z,9.60
2019-04-10T10:51:25.413Z,10.00
2019-04-10T10:53:55.156Z,10.50
2019-04-10T10:56:24.514Z,10.90
2019-04-10T10:58:56.229Z,11.20
2019-04-10T11:01:25.278Z,11.40
2019-04-10T11:03:54.720Z,11.70
2019-04-10T11:06:24.789Z,11.90
2019-04-10T11:08:55.495Z,12.10
2019-04-10T11:11:26.480Z,12.30
2019-04-10T11:13:57.287Z,12.60
2019-04-10T11:16:27.176Z,13.10
2019-04-10T11:18:58.994Z,13.50
2019-04-10T11:21:29.946Z,14.10
2019-04-10T11:24:01.005Z,14.50
2019-04-10T11:26:31.538Z,14.80
2019-04-10T11:29:01.882Z,14.80
2019-04-10T11:31:33.294Z,15.10
2019-04-10T11:34:04.211Z,15.40
2019-04-10T11:36:34.663Z,15.70
2019-04-10T11:39:16.130Z,15.60
2019-04-10T11:41:37.393Z,15.80
2019-04-10T11:44:14.310Z,16.10
2019-04-10T11:46:44.658Z,16.50
2019-04-10T11:49:17.823Z,17.00
2019-04-10T11:51:50.865Z,17.50
2019-04-10T11:54:24.716Z,17.70
2019-04-10T11:56:53.365Z,17.70
2019-04-10T11:59:24.388Z,18.00
2019-04-10T12:01:58.974Z,18.20
2019-04-10T12:04:29.047Z,18.10
2019-04-10T12:07:00.185Z,18.20
2019-04-10T12:12:02.240Z,18.20
2019-04-10T12:14:32.789Z,18.40
2019-04-10T12:17:22.144Z,18.80
2019-04-10T12:19:55.105Z,18.80
2019-04-10T12:22:25.428Z,17.70
2019-04-10T12:24:56.402Z,17.90
2019-04-10T12:27:29.376Z,18.20
2019-04-10T12:29:59.505Z,18.70
2019-04-10T12:32:29.007Z,19.10
2019-04-10T12:35:00.348Z,19.20
2019-04-10T12:37:29.494Z,19.50
2019-04-10T12:39:59.686Z,19.40
2019-04-10T12:42:30.250Z,19.80
2019-04-10T12:45:00.541Z,19.80
2019-04-10T12:47:30.796Z,19.70
2019-04-10T12:50:00.560Z,19.60
2019-04-10T12:52:30.418Z,19.70
2019-04-10T12:55:00.182Z,20.00
2019-04-10T12:57:29.722Z,20.10
2019-04-10T13:00:04.124Z,20.20
2019-04-10T13:02:34.869Z,20.40
2019-04-10T13:05:05.319Z,20.80
2019-04-10T13:07:35.905Z,21.00
2019-04-10T13:10:06.548Z,20.10
2019-04-10T13:12:36.014Z,20.30
2019-04-10T13:15:07.453Z,20.70
2019-04-10T13:17:40.744Z,21.00
2019-04-10T13:20:10.571Z,21.30
2019-04-10T13:22:40.318Z,21.40
2019-04-10T13:25:10.255Z,21.20
2019-04-10T13:27:41.110Z,20.80
2019-04-10T13:30:14.203Z,19.80
2019-04-10T13:32:45.215Z,19.80
2019-04-10T13:35:15.788Z,20.00
2019-04-10T13:37:45.589Z,20.20
2019-04-10T13:40:15.312Z,20.10
2019-04-10T13:42:45.387Z,19.90
2019-04-10T13:45:15.148Z,20.10
2019-04-10T13:47:44.985Z,20.10
2019-04-10T13:50:14.742Z,19.60
2019-04-10T13:52:46.534Z,19.60
2019-04-10T13:55:16.889Z,19.90
2019-04-10T13:57:46.653Z,20.40
2019-04-10T14:00:30.084Z,20.70
2019-04-10T14:03:00.135Z,21.00
2019-04-10T14:05:32.468Z,20.70
2019-04-10T14:08:02.096Z,20.90
2019-04-10T14:10:31.622Z,20.50
2019-04-10T14:13:01.658Z,20.70
2019-04-10T14:15:31.743Z,20.60
2019-04-10T14:18:01.960Z,20.80
2019-04-10T14:20:32.171Z,20.80
2019-04-10T14:23:10.484Z,20.60
2019-04-10T14:25:58.197Z,20.20
2019-04-10T14:28:29.171Z,19.90
2019-04-10T14:31:02.030Z,19.30
2019-04-10T14:33:32.459Z,18.60
2019-04-10T14:36:03.342Z,18.70
2019-04-10T14:38:32.916Z,19.10
2019-04-10T14:41:03.304Z,19.00
2019-04-10T14:43:33.036Z,18.70
2019-04-10T14:46:02.690Z,18.50
2019-04-10T14:48:32.239Z,18.40
2019-04-10T14:51:01.513Z,18.10
2019-04-10T14:53:31.392Z,18.10
2019-04-10T14:56:01.860Z,18.00
2019-04-10T14:58:33.781Z,18.20
2019-04-10T15:01:08.127Z,17.90
2019-04-10T15:03:36.212Z,17.10
2019-04-10T15:06:06.953Z,16.50
2019-04-10T15:08:36.583Z,15.80
2019-04-10T15:11:06.719Z,15.50
2019-04-10T15:13:36.607Z,15.70
2019-04-10T15:16:07.056Z,16.30
2019-04-10T15:18:37.216Z,16.90
2019-04-10T15:21:06.984Z,17.00
2019-04-10T15:23:36.902Z,17.20
2019-04-10T15:26:06.189Z,16.90
2019-04-10T15:28:36.031Z,16.60
2019-04-10T15:31:05.510Z,16.50
2019-04-10T15:33:35.258Z,16.60
2019-04-10T15:36:05.042Z,16.40
2019-04-10T15:38:34.533Z,16.50
2019-04-10T15:41:04.191Z,16.40
2019-04-10T15:43:33.808Z,16.60
2019-04-10T15:46:04.298Z,17.20
2019-04-10T15:48:37.821Z,18.00
2019-04-10T15:51:07.712Z,18.80
2019-04-10T15:53:37.758Z,19.50
2019-04-10T15:56:07.563Z,19.80
2019-04-10T15:58:36.839Z,19.80
2019-04-10T16:01:08.147Z,20.00
2019-04-10T16:03:38.630Z,20.30
2019-04-10T16:06:08.705Z,19.90
2019-04-10T16:08:38.599Z,19.10
2019-04-10T16:11:27.954Z,18.30
2019-04-10T16:13:59.082Z,18.10
2019-04-10T16:16:53.496Z,18.50
2019-04-10T16:19:36.747Z,19.10
2019-04-10T16:22:12.275Z,20.00
2019-04-10T16:24:41.965Z,20.50
2019-04-10T16:27:11.871Z,20.90
2019-04-10T16:29:42.603Z,20.90
2019-04-10T16:32:12.708Z,20.80
2019-04-10T16:34:42.862Z,19.80
2019-04-10T16:37:12.529Z,18.60
2019-04-10T16:39:42.442Z,17.50
2019-04-10T16:42:12.675Z,16.40
2019-04-10T16:44:42.337Z,15.30
2019-04-10T16:47:14.082Z,14.50
2019-04-10T16:49:44.678Z,13.90
2019-04-10T16:52:14.609Z,13.50
2019-04-10T16:54:45.172Z,13.10
2019-04-10T16:57:14.533Z,12.60
2019-04-10T16:59:44.692Z,12.60
2019-04-10T17:02:15.530Z,12.90
2019-04-10T17:04:45.482Z,13.30
2019-04-10T17:07:14.906Z,13.50
2019-04-10T17:09:45.398Z,13.40
2019-04-10T17:12:15.653Z,12.90
2019-04-10T17:14:45.797Z,12.40
2019-04-10T17:17:15.562Z,11.80
2019-04-10T17:19:52.837Z,11.40
2019-04-10T17:22:30.854Z,10.90
2019-04-10T17:24:49.433Z,10.50
2019-04-10T17:27:19.451Z,10.10
2019-04-10T17:29:49.440Z,9.80
2019-04-10T17:32:19.333Z,9.40
2019-04-10T17:34:49.315Z,9.20
2019-04-10T17:37:19.109Z,8.90
2019-04-10T17:39:49.396Z,8.70
2019-04-10T17:42:19.923Z,8.50
2019-04-10T17:44:49.776Z,8.30
2019-04-10T17:47:20.704Z,8.20
2019-04-10T17:49:50.197Z,7.90
2019-04-10T17:52:20.854Z,7.70
2019-04-10T17:54:51.281Z,7.60
2019-04-10T17:57:21.086Z,7.40
2019-04-10T17:59:51.120Z,7.20
2019-04-10T18:02:21.213Z,7.10
2019-04-10T18:04:50.973Z,6.90
2019-04-10T18:07:21.748Z,6.70
2019-04-10T18:09:51.142Z,6.60
2019-04-10T18:12:21.614Z,6.50
2019-04-10T18:14:51.409Z,6.40
2019-04-10T18:17:21.105Z,6.20
2019-04-10T18:19:50.799Z,6.10
2019-04-10T18:22:20.662Z,6.00
2019-04-10T18:24:50.419Z,5.80
2019-04-10T18:27:20.476Z,5.70
2019-04-10T18:29:49.835Z,5.50
2019-04-10T18:32:19.717Z,5.40
2019-04-10T18:34:50.021Z,5.30
2019-04-10T18:37:23.714Z,5.20
2019-04-10T18:39:51.621Z,5.10
2019-04-10T18:42:22.905Z,5.00
2019-04-10T18:44:53.243Z,4.90
2019-04-10T18:47:22.839Z,4.90
2019-04-10T18:49:52.189Z,4.80
2019-04-10T18:52:21.498Z,4.70
2019-04-10T18:54:51.955Z,4.60
2019-04-10T18:57:22.034Z,4.50
2019-04-10T19:00:10.140Z,4.50
2019-04-10T19:03:05.467Z,4.40
2019-04-10T19:05:38.393Z,4.30
2019-04-10T19:08:11.189Z,4.20
2019-04-10T19:10:39.670Z,4.10
2019-04-10T19:13:09.581Z,4.00
2019-04-10T19:15:40.497Z,3.90
2019-04-10T19:18:11.171Z,3.80
2019-04-10T19:20:42.953Z,3.80
2019-04-10T19:23:13.024Z,3.80
2019-04-10T19:25:43.389Z,3.70
2019-04-10T19:28:13.585Z,3.70
2019-04-10T19:30:51.127Z,3.60
2019-04-10T19:33:21.696Z,3.60
2019-04-10T19:35:55.165Z,3.60
2019-04-10T19:38:25.268Z,3.50
2019-04-10T19:40:54.646Z,3.50
2019-04-10T19:43:27.485Z,3.50
2019-04-10T19:45:56.418Z,3.50
2019-04-10T19:48:25.809Z,3.50
2019-04-10T19:50:55.233Z,3.50
2019-04-10T19:53:24.851Z,3.40
2019-04-10T19:55:54.470Z,3.40
2019-04-10T19:58:24.319Z,3.40
2019-04-10T20:00:56.862Z,3.30
2019-04-10T20:03:27.717Z,3.30
2019-04-10T20:05:57.599Z,3.30
2019-04-10T20:08:28.939Z,3.20
2019-04-10T20:10:58.655Z,3.20
2019-04-10T20:13:30.382Z,3.10
2019-04-10T20:16:01.050Z,3.10
2019-04-10T20:18:30.991Z,3.00
2019-04-10T20:21:01.698Z,3.00
2019-04-10T20:23:32.068Z,2.90
2019-04-10T20:26:02.067Z,2.90
2019-04-10T20:28:33.133Z,2.80
2019-04-10T20:31:03.333Z,2.80
2019-04-10T20:33:32.723Z,2.70
2019-04-10T20:36:02.022Z,2.70
2019-04-10T20:38:32.378Z,2.70
2019-04-10T20:41:04.656Z,2.60
2019-04-10T20:43:35.216Z,2.60
2019-04-10T20:46:06.573Z,2.50
2019-04-10T20:48:36.260Z,2.50
2019-04-10T20:51:08.119Z,2.50
2019-04-10T20:53:37.554Z,2.40
2019-04-10T20:56:08.068Z,2.40
2019-04-10T20:58:38.218Z,2.40
2019-04-10T21:01:08.316Z,2.30
2019-04-10T21:03:38.183Z,2.30
2019-04-10T21:06:08.914Z,2.30
2019-04-10T21:08:38.612Z,2.30
2019-04-10T21:11:09.588Z,2.20
2019-04-10T21:13:40.511Z,2.20
2019-04-10T21:16:11.256Z,2.20
2019-04-10T21:18:41.849Z,2.20
2019-04-10T21:21:12.280Z,2.10
2019-04-10T21:23:42.150Z,2.10
2019-04-10T21:26:12.305Z,2.10
2019-04-10T21:28:41.879Z,2.10
2019-04-10T21:31:39.062Z,2.00
2019-04-10T21:34:37.003Z,2.00
2019-04-10T21:37:06.517Z,1.90
2019-04-10T21:39:36.409Z,1.90
2019-04-10T21:42:15.989Z,1.80
2019-04-10T21:44:37.147Z,1.80
2019-04-10T21:47:06.962Z,1.70
2019-04-10T21:49:36.266Z,1.70
2019-04-10T21:52:06.031Z,1.60
2019-04-10T21:54:37.871Z,1.60
2019-04-10T21:57:07.555Z,1.50
2019-04-10T21:59:37.411Z,1.50
2019-04-10T22:02:07.070Z,1.40
2019-04-10T22:04:55.527Z,1.40
2019-04-10T22:07:44.796Z,1.30
2019-04-10T22:10:28.152Z,1.30
2019-04-10T22:12:57.595Z,1.20
2019-04-10T22:15:31.707Z,1.20
2019-04-10T22:18:02.956Z,1.10
2019-04-10T22:20:32.510Z,1.10
2019-04-10T22:23:01.872Z,1.00
2019-04-10T22:25:31.939Z,1.00
2019-04-10T22:28:01.314Z,0.90
2019-04-10T22:30:30.607Z,0.90
2019-04-10T22:32:59.894Z,0.80
2019-04-10T22:35:29.648Z,0.80
2019-04-10T22:37:58.935Z,0.70
2019-04-10T22:40:29.127Z,0.70
2019-04-10T22:42:59.537Z,0.70
2019-04-10T22:45:31.036Z,0.60
2019-04-10T22:48:00.737Z,0.60
2019-04-10T22:50:31.060Z,0.60
2019-04-10T22:53:01.546Z,0.50
2019-04-10T22:55:31.787Z,0.50
2019-04-10T22:58:02.384Z,0.40
2019-04-10T23:00:32.615Z,0.40
2019-04-10T23:03:03.171Z,0.30
2019-04-10T23:05:32.830Z,0.30
2019-04-10T23:08:03.179Z,0.20
2019-04-10T23:10:33.280Z,0.20
2019-04-10T23:13:05.407Z,0.10
2019-04-10T23:15:33.711Z,0.10
2019-04-10T23:18:03.321Z,0.10
2019-04-10T23:20:32.758Z,0.00
2019-04-10T23:23:03.123Z,0.00
2019-04-10T23:25:32.474Z,-0.10
2019-04-10T23:28:03.040Z,-0.10
2019-04-10T23:30:33.046Z,-0.10
2019-04-10T23:33:02.426Z,-0.10
2019-04-10T23:35:31.772Z,-0.20
2019-04-10T23:38:01.472Z,-0.30
2019-04-10T23:40:30.920Z,-0.30
2019-04-10T23:43:08.014Z,-0.40
2019-04-10T23:45:31.594Z,-0.40
2019-04-10T23:48:20.432Z,-0.40
2019-04-10T23:50:50.346Z,-0.40
2019-04-10T23:53:20.473Z,-0.50
2019-04-10T23:55:50.330Z,-0.50
2019-04-10T23:58:19.961Z,-0.50
